createdAt,value
2023-03-22T00:09:59.148Z,7.43
2023-03-22T00:19:59.224Z,7.42
2023-03-22T00:29:59.154Z,7.54
2023-03-22T00:39:59.192Z,7.53
2023-03-22T00:49:59.139Z,7.41
2023-03-22T00:59:59.171Z,7.35
2023-03-22T01:09:59.134Z,7.4
2023-03-22T01:19:59.140Z,7.33
2023-03-22T01:29:59.149Z,7.29
2023-03-22T01:39:59.151Z,7.32
2023-03-22T01:49:59.134Z,7.38
2023-03-22T01:59:59.181Z,7.48
2023-03-22T02:09:59.104Z,7.36
2023-03-22T02:19:59.157Z,7.33
2023-03-22T02:29:59.103Z,7.16
2023-03-22T02:39:59.128Z,7.18
2023-03-22T02:49:59.124Z,7.2
2023-03-22T02:59:59.132Z,7.2
2023-03-22T03:09:59.111Z,7.1
2023-03-22T03:19:59.147Z,7.02
2023-03-22T03:29:59.142Z,6.95
2023-03-22T03:39:59.160Z,6.92
2023-03-22T03:49:59.080Z,7.04
2023-03-22T03:59:59.128Z,7.03
2023-03-22T04:09:59.064Z,6.91
2023-03-22T04:19:59.147Z,6.76
2023-03-22T04:29:59.121Z,6.61
2023-03-22T04:39:59.135Z,6.51
2023-03-22T04:49:59.098Z,6.44
2023-03-22T04:59:59.125Z,6.29
2023-03-22T05:09:59.116Z,6.06
2023-03-22T05:19:59.153Z,6.03
2023-03-22T05:29:59.113Z,6.11
2023-03-22T05:39:59.089Z,6.22
2023-03-22T05:49:59.073Z,6.39
2023-03-22T05:59:59.091Z,6.59
2023-03-22T06:10:07.245Z,6.72
2023-03-22T06:20:02.305Z,6.87
2023-03-22T06:29:59.126Z,6.94
2023-03-22T06:39:59.130Z,7.06
2023-03-22T06:49:59.019Z,7.15
2023-03-22T06:59:59.063Z,8.15
2023-03-22T07:09:59.036Z,8.66
2023-03-22T07:19:59.119Z,9.25
2023-03-22T07:29:59.018Z,9.78
2023-03-22T07:39:59.080Z,9.97
2023-03-22T07:49:59.017Z,10.69
2023-03-22T07:59:59.039Z,11.17
2023-03-22T08:09:59.313Z,10.93
2023-03-22T08:19:59.040Z,11.05
2023-03-22T08:29:59.012Z,11.43
2023-03-22T08:39:59.027Z,12.93
2023-03-22T08:49:58.974Z,13.41
2023-03-22T08:59:59.010Z,14.29
2023-03-22T09:09:58.962Z,15.25
2023-03-22T09:20:11.326Z,16.13
2023-03-22T09:29:58.943Z,16.17
2023-03-22T09:39:58.965Z,16.26
2023-03-22T09:49:58.920Z,16.74
2023-03-22T09:59:59.011Z,17.4
2023-03-22T10:09:58.920Z,17.45
2023-03-22T10:19:58.999Z,17.89
2023-03-22T10:29:58.880Z,18.73
2023-03-22T10:39:58.919Z,18.73
2023-03-22T10:49:58.910Z,19.06
2023-03-22T10:59:58.885Z,19.01
2023-03-22T11:09:58.863Z,19.49
2023-03-22T11:19:58.993Z,19.91
2023-03-22T11:29:58.860Z,20.23
2023-03-22T11:39:58.898Z,20.38
2023-03-22T11:49:58.817Z,20.78
2023-03-22T11:59:58.793Z,20.92
2023-03-22T12:09:59.715Z,20.83
2023-03-22T12:19:58.816Z,20.73
2023-03-22T12:29:58.827Z,20.67
2023-03-22T12:39:58.806Z,21.05
2023-03-22T12:49:58.739Z,20.85
2023-03-22T12:59:58.784Z,20.32
2023-03-22T13:09:58.730Z,20.23
2023-03-22T13:19:58.806Z,20.04
2023-03-22T13:29:58.778Z,20.07
2023-03-22T13:39:58.730Z,20.39
2023-03-22T13:49:58.722Z,20.42
2023-03-22T14:00:09.083Z,20.45
2023-03-22T14:09:58.662Z,20.47
2023-03-22T14:19:58.718Z,20.51
